KO6KXY-13 Weather Reports


time (UTC)temp
F
wind
direction
speed
knots
gust
knots
rain 1hr
in
rain 24hr
in
rain mn
in
humidity
%
barometer
mb
20260902204300 87 0.0 0.0 0.00 0.00 0.00 34 1016.2
20260902203800 88 0.0 0.0 0.00 0.00 0.00 32 1016.3
20260902203259 88 0.0 0.0 0.00 0.00 0.00 32 1016.3
20260902202758 87 0.0 0.0 0.00 0.00 0.00 33 1016.2
20260902202258 85 0.0 0.0 0.00 0.00 0.00 36 1016.4
20260902201757 86 0.0 0.0 0.00 0.00 0.00 36 1016.4
20260902201256 85 0.0 0.0 0.00 0.00 0.00 37 1016.4
20260902200756 86 0.0 0.0 0.00 0.00 0.00 34 1016.5
20260902200255 89 0.0 0.0 0.00 0.00 0.00 31 1016.6
20260902195754 85 0.0 0.0 0.00 0.00 0.00 35 1016.7
20260902195253 83 0.0 0.0 0.00 0.00 0.00 40 1016.7
20260902194753 84 0.0 0.0 0.00 0.00 0.00 38 1016.7
20260902194252 83 0.0 0.0 0.00 0.00 0.00 40 1016.8
20260902193751 85 0.0 0.0 0.00 0.00 0.00 38 1016.9
20260902193251 84 0.0 0.0 0.00 0.00 0.00 39 1017.0
20260902192750 81 0.0 0.0 0.00 0.00 0.00 42 1017.1
20260902192249 82 0.0 0.0 0.00 0.00 0.00 41 1017.2
20260902191748 81 0.0 0.0 0.00 0.00 0.00 42 1017.2
20260902191248 82 0.0 0.0 0.00 0.00 0.00 43 1017.3
20260902190747 82 0.0 0.0 0.00 0.00 0.00 42 1017.4
20260902190246 80 0.0 0.0 0.00 0.00 0.00 45 1017.5
20260902185745 80 0.0 0.0 0.00 0.00 0.00 46 1017.5
20260902185245 80 0.0 0.0 0.00 0.00 0.00 47 1017.5
20260902184744 80 0.0 0.0 0.00 0.00 0.00 46 1017.5
20260902184243 79 0.0 0.0 0.00 0.00 0.00 47 1017.4
20260902183742 78 0.0 0.0 0.00 0.00 0.00 49 1017.5
20260902183241 77 0.0 0.0 0.00 0.00 0.00 50 1017.6
20260902182741 77 0.0 0.0 0.00 0.00 0.00 50 1017.6
20260902182240 76 0.0 0.0 0.00 0.00 0.00 51 1017.7
20260902181739 76 0.0 0.0 0.00 0.00 0.00 51 1017.6
20260902181238 77 0.0 0.0 0.00 0.00 0.00 51 1017.7
20260902180737 76 0.0 0.0 0.00 0.00 0.00 52 1017.7
20260902180237 75 0.0 0.0 0.00 0.00 0.00 54 1017.8
20260902175736 75 0.0 0.0 0.00 0.00 0.00 54 1017.8
20260902175235 75 0.0 0.0 0.00 0.00 0.00 56 1017.8
20260902174734 75 0.0 0.0 0.00 0.00 0.00 53 1017.8
20260902174233 75 0.0 0.0 0.00 0.00 0.00 55 1017.8
20260902173732 74 0.0 0.0 0.00 0.00 0.00 56 1017.8
20260902173232 74 0.0 0.0 0.00 0.00 0.00 58 1017.7
20260902172731 73 0.0 0.0 0.00 0.00 0.00 61 1017.6
20260902172230 72 0.0 0.0 0.00 0.00 0.00 60 1017.6
20260902171729 72 0.0 0.0 0.00 0.00 0.00 60 1017.7
20260902171229 72 0.0 0.0 0.00 0.00 0.00 62 1017.6
20260902170727 73 0.0 0.0 0.00 0.00 0.00 62 1017.6
20260902170227 72 0.0 0.0 0.00 0.00 0.00 62 1017.6
20260902165726 72 0.0 0.0 0.00 0.00 0.00 62 1017.5
20260902165225 72 0.0 0.0 0.00 0.00 0.00 64 1017.5
20260902164724 71 0.0 0.0 0.00 0.00 0.00 64 1017.5
20260902164224 71 0.0 0.0 0.00 0.00 0.00 65 1017.6
20260902163723 71 0.0 0.0 0.00 0.00 0.00 66 1017.6
20260902163222 71 0.0 0.0 0.00 0.00 0.00 66 1017.5
20260902162721 70 0.0 0.0 0.00 0.00 0.00 68 1017.4
20260902162220 69 0.0 0.0 0.00 0.00 0.00 68 1017.5
20260902161719 69 0.0 0.0 0.00 0.00 0.00 69 1017.5
20260902161218 70 0.0 0.0 0.00 0.00 0.00 70 1017.5
20260902160717 69 0.0 0.0 0.00 0.00 0.00 70 1017.5
20260902160217 69 0.0 0.0 0.00 0.00 0.00 70 1017.3
20260902155716 69 0.0 0.0 0.00 0.00 0.00 71 1017.4
20260902155215 68 0.0 0.0 0.00 0.00 0.00 70 1017.5
20260902154714 68 0.0 0.0 0.00 0.00 0.00 71 1017.5
20260902154214 68 0.0 0.0 0.00 0.00 0.00 72 1017.5
20260902154140 68 0.0 0.0 0.00 0.00 0.00 72 1017.5
20260902153639 68 0.0 0.0 0.00 0.00 0.00 72 1017.5
20260902153138 67 0.0 0.0 0.00 0.00 0.00 73 1017.5
20260902152637 67 0.0 0.0 0.00 0.00 0.00 73 1017.6
20260902152136 67 0.0 0.0 0.00 0.00 0.00 73 1017.5
20260902151635 66 0.0 0.0 0.00 0.00 0.00 73 1017.5
20260902151134 66 0.0 0.0 0.00 0.00 0.00 73 1017.4
20260902150633 66 0.0 0.0 0.00 0.00 0.00 74 1017.4
20260902150133 66 0.0 0.0 0.00 0.00 0.00 74 1017.4
20260902145024 65 0.0 0.0 0.00 0.00 0.00 75 1017.4
20260902144523 65 0.0 0.0 0.00 0.00 0.00 76 1017.2
20260902144022 64 0.0 0.0 0.00 0.00 0.00 76 1017.1
20260902143521 64 0.0 0.0 0.00 0.00 0.00 76 1017.1
20260902143021 64 0.0 0.0 0.00 0.00 0.00 77 1017.0
20260902142521 63 0.0 0.0 0.00 0.00 0.00 78 1017.0
20260902142021 63 0.0 0.0 0.00 0.00 0.00 77 1017.0
20260902141521 64 0.0 0.0 0.00 0.00 0.00 76 1017.0
20260902141020 64 0.0 0.0 0.00 0.00 0.00 75 1016.9
20260902140519 64 0.0 0.0 0.00 0.00 0.00 75 1016.9
20260902140018 64 0.0 0.0 0.00 0.00 0.00 76 1016.8
20260902135517 64 0.0 0.0 0.00 0.00 0.00 75 1016.7
20260902135016 64 0.0 0.0 0.00 0.00 0.00 76 1016.6
20260902134517 64 0.0 0.0 0.00 0.00 0.00 77 1016.5
20260902134016 64 0.0 0.0 0.00 0.00 0.00 77 1016.5
20260902133516 64 0.0 0.0 0.00 0.00 0.00 77 1016.4
20260902133016 64 0.0 0.0 0.00 0.00 0.00 78 1016.5
20260902132515 64 0.0 0.0 0.00 0.00 0.00 78 1016.5
20260902132014 64 0.0 0.0 0.00 0.00 0.00 76 1016.5
20260902131513 64 0.0 0.0 0.00 0.00 0.00 78 1016.4
20260902131012 64 0.0 0.0 0.00 0.00 0.00 77 1016.4
20260902130512 64 0.0 0.0 0.00 0.00 0.00 77 1016.4
20260902130011 64 0.0 0.0 0.00 0.00 0.00 77 1016.4
20260902125510 64 0.0 0.0 0.00 0.00 0.00 77 1016.4
20260902125009 64 0.0 0.0 0.00 0.00 0.00 78 1016.5
20260902124508 64 0.0 0.0 0.00 0.00 0.00 78 1016.5
20260902124008 64 0.0 0.0 0.00 0.00 0.00 78 1016.6
20260902123507 64 0.0 0.0 0.00 0.00 0.00 77 1016.7
20260902123006 64 0.0 0.0 0.00 0.00 0.00 77 1016.7
20260902122505 64 0.0 0.0 0.00 0.00 0.00 78 1016.6
20260902122004 64 0.0 0.0 0.00 0.00 0.00 78 1016.6
20260902121503 64 0.0 0.0 0.00 0.00 0.00 77 1016.6
20260902121002 64 0.0 0.0 0.00 0.00 0.00 78 1016.5
20260902120501 64 0.0 0.0 0.00 0.00 0.00 77 1016.5
20260902120000 64 0.0 0.0 0.00 0.00 0.00 77 1016.6
20260902115459 64 0.0 0.0 0.00 0.00 0.00 77 1016.6
20260902114958 64 0.0 0.0 0.00 0.00 0.00 77 1016.6
20260902114458 64 0.0 0.0 0.00 0.00 0.00 77 1016.6
20260902113958 64 0.0 0.0 0.00 0.00 0.00 77 1016.7
20260902113458 64 0.0 0.0 0.00 0.00 0.00 76 1016.8
20260902112957 64 0.0 0.0 0.00 0.00 0.00 76 1016.7
20260902112456 65 0.0 0.0 0.00 0.00 0.00 75 1016.7
20260902111955 65 0.0 0.0 0.00 0.00 0.00 76 1016.7
20260902111454 64 0.0 0.0 0.00 0.00 0.00 76 1016.6
20260902110953 65 0.0 0.0 0.00 0.00 0.00 76 1016.7
20260902110452 65 0.0 0.0 0.00 0.00 0.00 77 1016.7
20260902105951 64 0.0 0.0 0.00 0.00 0.00 77 1016.8
20260902105450 64 0.0 0.0 0.00 0.00 0.00 78 1016.8
20260902104949 64 0.0 0.0 0.00 0.00 0.00 78 1016.7
20260902104449 64 0.0 0.0 0.00 0.00 0.00 77 1016.8
20260902103948 64 0.0 0.0 0.00 0.00 0.00 77 1016.8
20260902103447 64 0.0 0.0 0.00 0.00 0.00 77 1016.8
20260902102946 64 0.0 0.0 0.00 0.00 0.00 77 1016.8
20260902102445 64 0.0 0.0 0.00 0.00 0.00 77 1016.8
20260902101944 64 0.0 0.0 0.00 0.00 0.00 77 1016.8
20260902101443 64 0.0 0.0 0.00 0.00 0.00 77 1016.9
20260902100942 64 0.0 0.0 0.00 0.00 0.00 76 1016.9
20260902100441 64 0.0 0.0 0.00 0.00 0.00 76 1016.9
20260902095940 64 0.0 0.0 0.00 0.00 0.00 76 1016.8
20260902095439 64 0.0 0.0 0.00 0.00 0.00 76 1016.9
20260902094938 64 0.0 0.0 0.00 0.00 0.00 76 1017.0
20260902094438 64 0.0 0.0 0.00 0.00 0.00 76 1017.0
20260902093937 64 0.0 0.0 0.00 0.00 0.00 75 1017.0
20260902093436 64 0.0 0.0 0.00 0.00 0.00 75 1017.0
20260902092935 64 0.0 0.0 0.00 0.00 0.00 76 1016.9
20260902092434 64 0.0 0.0 0.00 0.00 0.00 75 1016.9
20260902091933 64 0.0 0.0 0.00 0.00 0.00 75 1017.0
20260902091432 64 0.0 0.0 0.00 0.00 0.00 74 1016.9
20260902090932 64 0.0 0.0 0.00 0.00 0.00 74 1016.9
20260902090431 65 0.0 0.0 0.00 0.00 0.00 73 1016.9
20260902085930 65 0.0 0.0 0.00 0.00 0.00 74 1016.9
20260902085429 65 0.0 0.0 0.00 0.00 0.00 74 1016.9
20260902084928 65 0.0 0.0 0.00 0.00 0.00 73 1016.9
20260902084427 65 0.0 0.0 0.00 0.00 0.00 72 1017.0
20260902083926 65 0.0 0.0 0.00 0.00 0.00 72 1016.9
20260902083425 65 0.0 0.0 0.00 0.00 0.00 72 1016.9
20260902082924 65 0.0 0.0 0.00 0.00 0.00 72 1017.0
20260902082423 65 0.0 0.0 0.00 0.00 0.00 72 1017.0
20260902081922 66 0.0 0.0 0.00 0.00 0.00 71 1017.0
20260902081421 66 0.0 0.0 0.00 0.00 0.00 71 1017.0
20260902080920 66 0.0 0.0 0.00 0.00 0.00 72 1017.1
20260902080419 66 0.0 0.0 0.00 0.00 0.00 71 1017.1
20260902075918 66 0.0 0.0 0.00 0.00 0.00 71 1017.2
20260902075417 66 0.0 0.0 0.00 0.00 0.00 71 1017.1
20260902074916 66 0.0 0.0 0.00 0.00 0.00 71 1017.1
20260902074415 66 0.0 0.0 0.00 0.00 0.00 71 1017.0
20260902073915 66 0.0 0.0 0.00 0.00 0.00 72 1016.9
20260902073414 66 0.0 0.0 0.00 0.00 0.00 70 1016.8
20260902072913 67 0.0 0.0 0.00 0.00 0.00 70 1016.8
20260902072412 67 0.0 0.0 0.00 0.00 0.00 69 1016.8
20260902071911 67 0.0 0.0 0.00 0.00 0.00 69 1016.6
20260902071410 67 0.0 0.0 0.00 0.00 0.00 68 1016.5
20260902070909 67 0.0 0.0 0.00 0.00 0.00 68 1016.4
20260902070408 67 0.0 0.0 0.00 0.00 0.00 68 1016.4
20260902065907 68 0.0 0.0 0.00 0.00 0.00 67 1016.4
20260902065406 68 0.0 0.0 0.00 0.00 0.00 67 1016.5
20260902064905 68 0.0 0.0 0.00 0.00 0.00 67 1016.5
20260902064404 68 0.0 0.0 0.00 0.00 0.00 66 1016.5
20260902063903 69 0.0 0.0 0.00 0.00 0.00 65 1016.5
20260902063402 69 0.0 0.0 0.00 0.00 0.00 65 1016.4
20260902062901 69 0.0 0.0 0.00 0.00 0.00 65 1016.4
20260902062400 69 0.0 0.0 0.00 0.00 0.00 65 1016.4
20260902061859 69 0.0 0.0 0.00 0.00 0.00 64 1016.4
20260902061359 70 0.0 0.0 0.00 0.00 0.00 64 1016.3
20260902060858 70 0.0 0.0 0.00 0.00 0.00 62 1016.3
20260902060357 71 0.0 0.0 0.00 0.00 0.00 62 1016.3
20260902055856 70 0.0 0.0 0.00 0.00 0.00 63 1016.2
20260902055356 71 0.0 0.0 0.00 0.00 0.00 63 1016.2
20260902054702 70 0.0 0.0 0.00 0.00 0.00 64 1016.1
20260902054201 71 0.0 0.0 0.00 0.00 0.00 63 1016.2
20260902053701 71 0.0 0.0 0.00 0.00 0.00 63 1016.2
20260902053201 71 0.0 0.0 0.00 0.00 0.00 64 1016.3
20260902052701 71 0.0 0.0 0.00 0.00 0.00 62 1016.2
20260902052201 72 0.0 0.0 0.00 0.00 0.00 61 1016.2
20260902051700 71 0.0 0.0 0.00 0.00 0.00 61 1016.2
20260902043840 74 0.0 0.0 0.00 0.00 0.00 57 1015.8
20260902043339 74 0.0 0.0 0.00 0.00 0.00 58 1015.8
20260902042838 74 0.0 0.0 0.00 0.00 0.00 57 1015.7
20260902042338 74 0.0 0.0 0.00 0.00 0.00 56 1015.6
20260902041837 74 0.0 0.0 0.00 0.00 0.00 57 1015.5
20260902041336 75 0.0 0.0 0.00 0.00 0.00 56 1015.5
20260902040835 75 0.0 0.0 0.00 0.00 0.00 54 1015.5
20260902040335 75 0.0 0.0 0.00 0.00 0.00 54 1015.4
20260902035834 76 0.0 0.0 0.00 0.00 0.00 53 1015.2
20260902035333 76 0.0 0.0 0.00 0.00 0.00 54 1015.2
20260902034832 76 0.0 0.0 0.00 0.00 0.00 52 1015.1
20260902034332 78 0.0 0.0 0.00 0.00 0.00 49 1015.0
20260902033831 77 0.0 0.0 0.00 0.00 0.00 50 1015.0
20260902033330 76 0.0 0.0 0.00 0.00 0.00 52 1014.9
20260902032829 77 0.0 0.0 0.00 0.00 0.00 50 1014.8
20260902032329 78 0.0 0.0 0.00 0.00 0.00 48 1014.7
20260902031828 78 0.0 0.0 0.00 0.00 0.00 48 1014.7
20260902031327 78 0.0 0.0 0.00 0.00 0.00 47 1014.6
20260902030826 79 0.0 0.0 0.00 0.00 0.00 46 1014.6
20260902030326 80 0.0 0.0 0.00 0.00 0.00 44 1014.5
20260902025825 82 0.0 0.0 0.00 0.00 0.00 42 1014.4
20260902025324 80 0.0 0.0 0.00 0.00 0.00 44 1014.3
20260902024824 81 0.0 0.0 0.00 0.00 0.00 42 1014.3
20260902024323 82 0.0 0.0 0.00 0.00 0.00 39 1014.3
20260902023822 82 0.0 0.0 0.00 0.00 0.00 39 1014.2
20260902023322 82 0.0 0.0 0.00 0.00 0.00 40 1014.2
20260902022821 82 0.0 0.0 0.00 0.00 0.00 39 1014.2
20260902022320 85 0.0 0.0 0.00 0.00 0.00 36 1014.2
20260902021820 85 0.0 0.0 0.00 0.00 0.00 36 1014.2
20260902021319 84 0.0 0.0 0.00 0.00 0.00 37 1014.2
20260902020818 85 0.0 0.0 0.00 0.00 0.00 36 1014.2
20260902020318 86 0.0 0.0 0.00 0.00 0.00 35 1014.2
20260902015817 86 0.0 0.0 0.00 0.00 0.00 35 1014.2
20260902015317 86 0.0 0.0 0.00 0.00 0.00 36 1014.2
20260902014816 86 0.0 0.0 0.00 0.00 0.00 36 1014.2
20260902014315 86 0.0 0.0 0.00 0.00 0.00 36 1014.3
20260902013815 87 0.0 0.0 0.00 0.00 0.00 36 1014.3
20260902013314 87 0.0 0.0 0.00 0.00 0.00 35 1014.2
20260902012813 88 0.0 0.0 0.00 0.00 0.00 35 1014.2
20260902012313 90 0.0 0.0 0.00 0.00 0.00 33 1014.1
20260902011812 90 0.0 0.0 0.00 0.00 0.00 33 1014.1
20260902011312 90 0.0 0.0 0.00 0.00 0.00 33 1014.1
20260902010811 90 0.0 0.0 0.00 0.00 0.00 33 1014.2
20260902010311 93 0.0 0.0 0.00 0.00 0.00 29 1014.3
20260902005810 94 0.0 0.0 0.00 0.00 0.00 27 1014.3
20260902005310 95 0.0 0.0 0.00 0.00 0.00 27 1014.3
20260902004809 93 0.0 0.0 0.00 0.00 0.00 28 1014.4
20260902004309 93 0.0 0.0 0.00 0.00 0.00 27 1014.3
20260902003808 96 0.0 0.0 0.00 0.00 0.00 24 1014.4
20260902003307 95 0.0 0.0 0.00 0.00 0.00 23 1014.4
20260902002807 95 0.0 0.0 0.00 0.00 0.00 23 1014.4
20260902002307 96 0.0 0.0 0.00 0.00 0.00 22 1014.3
20260902001806 98 0.0 0.0 0.00 0.00 0.00 20 1014.4
20260902001306 99 0.0 0.0 0.00 0.00 0.00 19 1014.4
20260902000805 97 0.0 0.0 0.00 0.00 0.00 20 1014.4
20260902000304 96 0.0 0.0 0.00 0.00 0.00 20 1014.4
20260901235804 98 0.0 0.0 0.00 0.00 0.00 19 1014.5
20260901235307 98 0.0 0.0 0.00 0.00 0.00 20 1014.5
20260901234803 97 0.0 0.0 0.00 0.00 0.00 19 1014.5
20260901234302 97 0.0 0.0 0.00 0.00 0.00 18 1014.5
20260901233802 97 0.0 0.0 0.00 0.00 0.00 17 1014.5
20260901233301 98 0.0 0.0 0.00 0.00 0.00 18 1014.5
20260901232801 96 0.0 0.0 0.00 0.00 0.00 17 1014.6
20260901232300 96 0.0 0.0 0.00 0.00 0.00 18 1014.7
20260901231800 98 0.0 0.0 0.00 0.00 0.00 16 1014.6
20260901231259 99 0.0 0.0 0.00 0.00 0.00 16 1014.6
20260901230759 97 0.0 0.0 0.00 0.00 0.00 16 1014.6
20260901230258 98 0.0 0.0 0.00 0.00 0.00 15 1014.7
20260901225758 98 0.0 0.0 0.00 0.00 0.00 15 1014.7
20260901225257 100 0.0 0.0 0.00 0.00 0.00 15 1014.7
20260901224757 98 0.0 0.0 0.00 0.00 0.00 16 1014.8
20260901224256 96 0.0 0.0 0.00 0.00 0.00 17 1014.9
20260901223756 98 0.0 0.0 0.00 0.00 0.00 16 1014.9
20260901223255 98 0.0 0.0 0.00 0.00 0.00 17 1014.9
20260901222755 98 0.0 0.0 0.00 0.00 0.00 18 1015.0
20260901222254 96 0.0 0.0 0.00 0.00 0.00 19 1015.1
20260901221754 98 0.0 0.0 0.00 0.00 0.00 20 1015.0
20260901221253 98 0.0 0.0 0.00 0.00 0.00 20 1015.1
20260901220753 98 0.0 0.0 0.00 0.00 0.00 21 1015.2
20260901220252 94 0.0 0.0 0.00 0.00 0.00 22 1015.2
20260901215752 98 0.0 0.0 0.00 0.00 0.00 19 1015.2
20260901215251 97 0.0 0.0 0.00 0.00 0.00 20 1015.3
20260901214751 96 0.0 0.0 0.00 0.00 0.00 21 1015.4
20260901214250 95 0.0 0.0 0.00 0.00 0.00 22 1015.3
20260901213750 95 0.0 0.0 0.00 0.00 0.00 22 1015.3
20260901213249 94 0.0 0.0 0.00 0.00 0.00 25 1015.4
20260901212748 93 0.0 0.0 0.00 0.00 0.00 26 1015.4
20260901212248 92 0.0 0.0 0.00 0.00 0.00 27 1015.4
20260901211747 91 0.0 0.0 0.00 0.00 0.00 26 1015.5
20260901211247 93 0.0 0.0 0.00 0.00 0.00 26 1015.5
20260901210746 92 0.0 0.0 0.00 0.00 0.00 28 1015.5
20260901210246 90 0.0 0.0 0.00 0.00 0.00 29 1015.5
20260901205745 92 0.0 0.0 0.00 0.00 0.00 28 1015.6
20260901205244 92 0.0 0.0 0.00 0.00 0.00 30 1015.6
20260901204744 89 0.0 0.0 0.00 0.00 0.00 33 1015.7